createdAt,value
2022-12-18T00:01:24.799Z,21.02
2022-12-18T00:03:52.602Z,36.50
2022-12-18T00:06:20.680Z,24.75
2022-12-18T00:08:48.758Z,21.48
2022-12-18T00:11:22.885Z,14.35
2022-12-18T00:13:50.913Z,10.40
2022-12-18T00:16:23.912Z,10.85
2022-12-18T00:18:55.244Z,26.23
2022-12-18T00:21:22.299Z,15.88
2022-12-18T00:23:49.960Z,26.48
2022-12-18T00:26:22.823Z,10.77
2022-12-18T00:28:50.277Z,10.05
2022-12-18T00:31:19.713Z,15.93
2022-12-18T00:33:48.169Z,18.45
2022-12-18T00:36:18.575Z,12.60
2022-12-18T00:41:14.418Z,6.65
2022-12-18T00:43:41.547Z,20.63
2022-12-18T00:46:08.928Z,23.50
2022-12-18T00:48:36.975Z,3.67
2022-12-18T00:51:08.071Z,28.42
2022-12-18T00:53:35.410Z,29.30
2022-12-18T00:56:05.396Z,5.00
2022-12-18T00:58:31.929Z,5.40
2022-12-18T01:00:58.437Z,15.52
2022-12-18T01:03:25.220Z,35.30
2022-12-18T01:05:55.689Z,23.35
2022-12-18T01:08:23.000Z,4.70
2022-12-18T01:10:49.867Z,13.82
2022-12-18T01:13:17.154Z,19.27
2022-12-18T01:15:52.932Z,7.28
2022-12-18T01:18:21.054Z,18.45
2022-12-18T01:20:47.562Z,18.25
2022-12-18T01:23:14.384Z,10.27
2022-12-18T01:25:41.477Z,16.63
2022-12-18T01:28:09.905Z,22.10
2022-12-18T01:30:36.395Z,29.65
2022-12-18T01:33:06.048Z,16.85
2022-12-18T01:35:32.937Z,18.02
2022-12-18T01:37:59.754Z,18.00
2022-12-18T01:40:27.147Z,23.35
2022-12-18T01:42:55.281Z,20.80
2022-12-18T01:45:22.057Z,24.27
2022-12-18T01:47:57.168Z,30.20
2022-12-18T01:50:35.570Z,22.33
2022-12-18T01:55:43.174Z,17.00
2022-12-18T01:58:10.053Z,21.00
2022-12-18T02:00:37.054Z,23.80
2022-12-18T02:03:04.525Z,26.08
2022-12-18T02:05:37.605Z,29.80
2022-12-18T02:08:20.986Z,24.45
2022-12-18T02:11:10.559Z,19.02
2022-12-18T02:14:08.171Z,19.48
2022-12-18T02:16:48.357Z,21.80
2022-12-18T02:19:51.496Z,27.63
2022-12-18T02:23:12.628Z,24.90
2022-12-18T02:26:10.124Z,21.55
2022-12-18T02:28:43.655Z,27.25
2022-12-18T02:31:15.499Z,25.88
2022-12-18T02:33:47.256Z,21.42
2022-12-18T02:36:15.839Z,24.85
2022-12-18T02:41:11.625Z,13.20
2022-12-18T02:43:38.400Z,29.23
2022-12-18T02:46:27.431Z,21.00
2022-12-18T02:49:16.960Z,24.73
2022-12-18T02:51:58.197Z,21.23
2022-12-18T02:54:32.091Z,25.00
2022-12-18T02:57:06.415Z,27.92
2022-12-18T02:59:50.661Z,19.08
2022-12-18T03:02:29.246Z,18.42
2022-12-18T03:05:02.124Z,20.42
2022-12-18T03:07:38.175Z,21.08
2022-12-18T03:10:12.022Z,21.02
2022-12-18T03:12:48.903Z,21.55
2022-12-18T03:15:24.457Z,17.27
2022-12-18T03:17:59.287Z,15.32
2022-12-18T03:20:31.230Z,23.48
2022-12-18T03:23:05.394Z,23.85
2022-12-18T03:25:34.403Z,17.02
2022-12-18T03:28:03.527Z,24.58
2022-12-18T03:30:33.872Z,14.20
2022-12-18T03:33:16.077Z,16.38
2022-12-18T03:35:46.197Z,27.85
2022-12-18T03:38:15.033Z,27.23
2022-12-18T03:41:28.547Z,30.55
2022-12-18T03:44:16.653Z,20.77
2022-12-18T03:46:49.497Z,23.85
2022-12-18T03:49:29.966Z,23.35
2022-12-18T03:52:10.453Z,23.00
2022-12-18T03:54:38.754Z,19.15
2022-12-18T03:57:15.422Z,30.83
2022-12-18T03:59:44.404Z,19.23
2022-12-18T04:02:15.666Z,25.45
2022-12-18T04:04:44.479Z,20.58
2022-12-18T04:07:11.693Z,19.88
2022-12-18T04:09:40.870Z,19.52
2022-12-18T04:12:09.728Z,20.30
2022-12-18T04:14:36.865Z,21.23
2022-12-18T04:17:06.575Z,18.17
2022-12-18T04:19:33.345Z,24.23
2022-12-18T04:21:59.864Z,26.08
2022-12-18T04:24:31.964Z,15.50
2022-12-18T04:27:00.913Z,22.05
2022-12-18T04:29:30.653Z,26.02
2022-12-18T04:31:57.895Z,24.20
2022-12-18T04:34:24.712Z,14.93
2022-12-18T04:36:52.559Z,18.73
2022-12-18T04:39:19.322Z,18.33
2022-12-18T04:41:46.177Z,19.05
2022-12-18T04:44:14.754Z,12.70
2022-12-18T04:46:41.872Z,14.45
2022-12-18T04:49:08.932Z,15.50
2022-12-18T04:51:35.415Z,12.93
2022-12-18T04:54:02.120Z,20.52
2022-12-18T04:56:29.038Z,13.63
2022-12-18T04:58:58.998Z,12.60
2022-12-18T05:01:30.963Z,16.88
2022-12-18T05:04:02.086Z,12.48
2022-12-18T05:06:31.470Z,18.20
2022-12-18T05:08:58.249Z,16.92
2022-12-18T05:11:25.954Z,10.90
2022-12-18T05:13:56.620Z,19.20
2022-12-18T05:16:25.452Z,11.73
2022-12-18T05:18:53.191Z,16.98
2022-12-18T05:21:23.385Z,18.23
2022-12-18T05:23:49.930Z,20.30
2022-12-18T05:26:20.851Z,16.27
2022-12-18T05:28:47.731Z,19.23
2022-12-18T05:31:17.160Z,13.70
2022-12-18T05:33:46.312Z,17.30
2022-12-18T05:36:14.415Z,12.60
2022-12-18T05:38:41.752Z,13.45
2022-12-18T05:41:09.567Z,18.02
2022-12-18T05:43:41.119Z,13.05
2022-12-18T05:46:12.794Z,17.20
2022-12-18T05:48:39.341Z,15.18
2022-12-18T05:51:13.652Z,14.93
2022-12-18T05:53:43.408Z,19.95
2022-12-18T05:56:14.067Z,13.43
2022-12-18T05:58:41.478Z,19.80
2022-12-18T06:01:15.037Z,38.35
2022-12-18T06:03:42.952Z,10.73
2022-12-18T06:06:28.442Z,19.90
2022-12-18T06:08:55.453Z,11.90
2022-12-18T06:11:27.348Z,15.82
2022-12-18T06:13:58.952Z,15.88
2022-12-18T06:16:26.952Z,15.32
2022-12-18T06:18:54.202Z,13.97
2022-12-18T06:21:22.537Z,13.18
2022-12-18T06:23:49.521Z,18.83
2022-12-18T06:26:16.872Z,21.25
2022-12-18T06:28:43.613Z,14.48
2022-12-18T06:31:11.387Z,19.33
2022-12-18T06:33:41.152Z,24.23
2022-12-18T06:36:10.069Z,16.15
2022-12-18T06:38:39.009Z,14.32
2022-12-18T06:41:15.500Z,15.45
2022-12-18T06:43:43.131Z,13.25
2022-12-18T06:46:10.885Z,15.93
2022-12-18T06:48:37.873Z,13.02
2022-12-18T06:51:07.372Z,6.35
2022-12-18T06:53:34.241Z,14.30
2022-12-18T06:56:07.854Z,13.82
2022-12-18T06:58:36.898Z,13.07
2022-12-18T07:01:05.437Z,12.60
2022-12-18T07:08:29.645Z,6.30
2022-12-18T07:10:56.694Z,7.40
2022-12-18T07:13:23.520Z,11.13
2022-12-18T07:15:50.401Z,8.43
2022-12-18T07:18:17.149Z,8.25
2022-12-18T07:20:43.951Z,9.15
2022-12-18T07:23:11.181Z,11.68
2022-12-18T07:25:38.042Z,11.32
2022-12-18T07:28:05.724Z,17.02
2022-12-18T07:30:32.407Z,15.27
2022-12-18T07:32:59.451Z,9.90
2022-12-18T07:35:27.127Z,12.77
2022-12-18T07:37:54.355Z,9.57
2022-12-18T07:40:21.092Z,7.90
2022-12-18T07:42:48.541Z,8.82
2022-12-18T07:45:19.197Z,14.23
2022-12-18T07:47:47.698Z,12.50
2022-12-18T07:50:14.684Z,10.82
2022-12-18T07:52:41.647Z,11.45
2022-12-18T07:55:09.664Z,8.75
2022-12-18T07:57:50.448Z,12.90
2022-12-18T08:00:18.515Z,8.82
2022-12-18T08:02:47.387Z,9.77
2022-12-18T08:05:15.496Z,7.95
2022-12-18T08:07:44.543Z,19.23
2022-12-18T08:10:16.290Z,7.47
2022-12-18T08:12:43.013Z,7.43
2022-12-18T08:15:13.120Z,11.05
2022-12-18T08:17:40.671Z,11.88
2022-12-18T08:20:09.987Z,9.13
2022-12-18T08:22:40.017Z,10.50
2022-12-18T08:25:08.743Z,5.15
2022-12-18T08:27:35.445Z,9.10
2022-12-18T08:30:04.750Z,13.73
2022-12-18T08:32:34.143Z,6.30
2022-12-18T08:37:29.357Z,1.33
2022-12-18T08:39:56.180Z,4.78
2022-12-18T08:42:41.578Z,0.98
2022-12-18T08:45:08.985Z,10.82
2022-12-18T08:47:35.694Z,9.85
2022-12-18T08:50:02.589Z,6.60
2022-12-18T08:52:29.282Z,7.90
2022-12-18T08:54:55.891Z,8.70
2022-12-18T08:57:23.099Z,6.53
2022-12-18T08:59:50.442Z,15.95
2022-12-18T09:02:18.682Z,6.50
2022-12-18T09:04:56.975Z,13.55
2022-12-18T09:07:24.375Z,10.35
2022-12-18T09:09:55.135Z,10.02
2022-12-18T09:12:26.441Z,7.50
2022-12-18T09:14:53.061Z,9.70
2022-12-18T09:17:20.045Z,9.57
2022-12-18T09:19:46.857Z,9.23
2022-12-18T09:22:14.045Z,5.47
2022-12-18T09:24:40.849Z,9.60
2022-12-18T09:27:08.155Z,5.60
2022-12-18T09:29:37.019Z,8.43
2022-12-18T09:32:04.577Z,6.75
2022-12-18T09:34:31.032Z,10.65
2022-12-18T09:36:57.903Z,12.05
2022-12-18T09:39:24.590Z,5.68
2022-12-18T09:41:59.560Z,9.27
2022-12-18T09:44:48.342Z,8.45
2022-12-18T09:47:39.014Z,10.10
2022-12-18T09:50:22.267Z,8.85
2022-12-18T09:52:54.675Z,7.10
2022-12-18T09:55:38.134Z,8.30
2022-12-18T09:58:17.861Z,9.48
2022-12-18T10:00:46.633Z,10.50
2022-12-18T10:03:18.982Z,9.98
2022-12-18T10:06:04.299Z,5.15
2022-12-18T10:09:01.519Z,8.05
2022-12-18T10:11:52.930Z,9.38
2022-12-18T10:14:37.688Z,3.20
2022-12-18T10:17:13.466Z,9.60
2022-12-18T10:19:50.540Z,2.42
2022-12-18T10:23:02.803Z,7.93
2022-12-18T10:26:03.505Z,4.90
2022-12-18T10:28:32.324Z,7.78
2022-12-18T10:30:59.512Z,5.90
2022-12-18T10:33:34.449Z,4.32
2022-12-18T10:36:01.595Z,7.78
2022-12-18T10:38:30.937Z,8.02
2022-12-18T10:40:58.661Z,7.40
2022-12-18T10:43:30.089Z,7.70
2022-12-18T10:46:13.275Z,5.68
2022-12-18T10:48:40.329Z,6.60
2022-12-18T10:51:12.831Z,8.10
2022-12-18T10:53:43.088Z,11.35
2022-12-18T10:56:09.952Z,7.32
2022-12-18T10:58:39.701Z,8.38
2022-12-18T11:01:11.717Z,6.82
2022-12-18T11:03:44.953Z,7.75
2022-12-18T11:06:13.431Z,5.07
2022-12-18T11:08:42.395Z,6.28
2022-12-18T11:11:31.189Z,8.63
2022-12-18T11:14:17.337Z,7.30
2022-12-18T11:17:03.110Z,4.82
2022-12-18T11:19:45.145Z,6.57
2022-12-18T11:22:41.763Z,6.95
2022-12-18T11:25:33.452Z,11.70
2022-12-18T11:28:07.067Z,5.45
2022-12-18T11:30:38.406Z,7.32
2022-12-18T11:33:16.704Z,6.10
2022-12-18T11:35:54.192Z,9.63
2022-12-18T11:38:25.240Z,6.88
2022-12-18T11:41:13.041Z,4.22
2022-12-18T11:43:53.943Z,5.53
2022-12-18T11:46:29.538Z,5.43
2022-12-18T11:49:28.019Z,5.20
2022-12-18T11:52:04.817Z,8.38
2022-12-18T11:54:31.658Z,5.93
2022-12-18T11:57:15.375Z,2.75
2022-12-18T12:00:05.876Z,6.15
2022-12-18T12:02:42.385Z,5.22
2022-12-18T12:05:34.268Z,8.27
2022-12-18T12:08:22.915Z,4.47
2022-12-18T12:10:55.816Z,10.25
2022-12-18T12:13:37.713Z,9.85
2022-12-18T12:16:26.211Z,8.48
2022-12-18T12:21:35.523Z,7.65
2022-12-18T12:24:05.128Z,8.38
2022-12-18T12:26:44.130Z,8.15
2022-12-18T12:29:26.234Z,6.40
2022-12-18T12:32:04.625Z,7.78
2022-12-18T12:37:35.143Z,3.83
2022-12-18T12:40:15.417Z,6.45
2022-12-18T12:43:15.520Z,10.43
2022-12-18T12:45:57.051Z,7.18
2022-12-18T12:49:00.837Z,5.28
2022-12-18T12:51:33.385Z,7.68
2022-12-18T12:54:02.660Z,8.98
2022-12-18T12:56:47.165Z,7.20
2022-12-18T12:59:31.957Z,8.98
2022-12-18T13:02:21.069Z,10.45
2022-12-18T13:05:20.104Z,8.35
2022-12-18T13:07:58.496Z,8.45
2022-12-18T13:10:37.309Z,5.70
2022-12-18T13:13:17.293Z,7.28
2022-12-18T13:16:09.495Z,9.27
2022-12-18T13:18:36.778Z,8.90
2022-12-18T13:21:18.365Z,9.67
2022-12-18T13:23:46.152Z,7.90
2022-12-18T13:26:23.226Z,11.27
2022-12-18T13:28:59.469Z,10.35
2022-12-18T13:31:41.976Z,7.93
2022-12-18T13:34:28.048Z,11.63
2022-12-18T13:36:58.393Z,9.30
2022-12-18T13:39:35.331Z,9.52
2022-12-18T13:42:05.515Z,10.07
2022-12-18T13:44:40.934Z,9.48
2022-12-18T13:47:40.617Z,10.57
2022-12-18T13:50:35.468Z,10.18
2022-12-18T13:53:06.268Z,10.43
2022-12-18T13:55:34.680Z,12.18
2022-12-18T13:58:09.260Z,9.60
2022-12-18T14:00:39.328Z,10.77
2022-12-18T14:03:22.379Z,8.27
2022-12-18T14:05:56.817Z,9.18
2022-12-18T14:08:33.233Z,7.07
2022-12-18T14:10:59.928Z,9.73
2022-12-18T14:13:33.213Z,14.23
2022-12-18T14:16:03.841Z,12.10
2022-12-18T14:18:38.936Z,8.88
2022-12-18T14:21:07.991Z,10.48
2022-12-18T14:23:36.475Z,8.32
2022-12-18T14:26:23.335Z,11.50
2022-12-18T14:28:51.715Z,9.55
2022-12-18T14:31:25.088Z,10.00
2022-12-18T14:33:54.196Z,6.55
2022-12-18T14:36:29.257Z,7.60
2022-12-18T14:39:00.420Z,6.78
2022-12-18T14:41:30.105Z,8.57
2022-12-18T14:44:07.842Z,9.18
2022-12-18T14:46:40.266Z,8.63
2022-12-18T14:49:24.606Z,7.75
2022-12-18T14:51:57.003Z,13.10
2022-12-18T14:54:29.031Z,10.73
2022-12-18T14:57:29.879Z,7.75
2022-12-18T15:00:06.696Z,10.30
2022-12-18T15:02:37.222Z,9.10
2022-12-18T15:05:24.667Z,5.07
2022-12-18T15:07:56.983Z,4.82
2022-12-18T15:10:26.292Z,6.28
2022-12-18T15:13:03.667Z,8.88
2022-12-18T15:15:40.604Z,4.70
2022-12-18T15:18:18.051Z,7.88
2022-12-18T15:20:53.928Z,5.45
2022-12-18T15:23:22.983Z,10.75
2022-12-18T15:25:56.943Z,8.85
2022-12-18T15:28:39.043Z,8.07
2022-12-18T15:31:10.035Z,9.23
2022-12-18T15:33:43.674Z,11.23
2022-12-18T15:36:15.997Z,9.73
2022-12-18T15:38:50.606Z,1.45
2022-12-18T15:41:24.709Z,6.72
2022-12-18T15:43:53.516Z,15.63
2022-12-18T15:49:01.696Z,8.05
2022-12-18T15:51:33.839Z,8.02
2022-12-18T15:54:04.895Z,11.57
2022-12-18T15:56:50.396Z,9.40
2022-12-18T15:59:21.420Z,8.90
2022-12-18T16:01:54.057Z,6.38
2022-12-18T16:04:22.937Z,12.13
2022-12-18T16:09:37.602Z,7.32
2022-12-18T16:12:18.397Z,10.05
2022-12-18T16:14:46.583Z,6.53
2022-12-18T16:17:16.158Z,6.57
2022-12-18T16:19:44.969Z,12.48
2022-12-18T16:22:29.040Z,9.05
2022-12-18T16:24:58.215Z,10.95
2022-12-18T16:27:27.934Z,3.85
2022-12-18T16:29:54.605Z,12.82
2022-12-18T16:32:23.317Z,15.40
2022-12-18T16:34:50.578Z,9.02
2022-12-18T16:37:17.265Z,6.00
2022-12-18T16:39:44.535Z,8.23
2022-12-18T16:42:15.573Z,8.02
2022-12-18T16:44:42.333Z,5.78
2022-12-18T16:47:09.290Z,8.52
2022-12-18T16:49:42.529Z,13.60
2022-12-18T16:52:11.684Z,8.95
2022-12-18T16:54:39.632Z,12.05
2022-12-18T16:57:06.191Z,4.78
2022-12-18T16:59:36.343Z,3.75
2022-12-18T17:02:02.929Z,6.68
2022-12-18T17:04:29.594Z,10.07
2022-12-18T17:06:56.233Z,12.52
2022-12-18T17:09:25.821Z,10.50
2022-12-18T17:11:53.380Z,6.15
2022-12-18T17:14:23.993Z,5.88
2022-12-18T17:17:07.316Z,11.50
2022-12-18T17:19:38.635Z,11.00
2022-12-18T17:22:05.489Z,9.60
2022-12-18T17:24:35.159Z,4.68
2022-12-18T17:27:05.424Z,3.17
2022-12-18T17:29:32.352Z,9.00
2022-12-18T17:32:00.457Z,9.60
2022-12-18T17:34:27.761Z,15.63
2022-12-18T17:36:54.871Z,6.85
2022-12-18T17:39:21.707Z,9.00
2022-12-18T17:41:49.649Z,14.48
2022-12-18T17:44:19.433Z,6.75
2022-12-18T17:46:48.803Z,13.48
2022-12-18T17:49:18.039Z,7.93
2022-12-18T17:51:46.912Z,4.70
2022-12-18T17:54:13.829Z,7.32
2022-12-18T17:56:40.535Z,8.48
2022-12-18T17:59:08.493Z,10.63
2022-12-18T18:01:39.681Z,5.03
2022-12-18T18:04:09.221Z,12.18
2022-12-18T18:06:38.963Z,15.02
2022-12-18T18:09:07.277Z,7.68
2022-12-18T18:12:02.720Z,4.00
2022-12-18T18:14:32.818Z,7.13
2022-12-18T18:17:05.256Z,8.13
2022-12-18T18:19:32.865Z,12.05
2022-12-18T18:21:59.432Z,6.03
2022-12-18T18:24:26.509Z,6.68
2022-12-18T18:26:54.670Z,14.95
2022-12-18T18:29:24.266Z,3.50
2022-12-18T18:31:53.443Z,11.10
2022-12-18T18:34:29.539Z,13.85
2022-12-18T18:37:01.393Z,16.00
2022-12-18T18:39:28.759Z,6.50
2022-12-18T18:41:55.748Z,4.88
2022-12-18T18:44:23.423Z,15.43
2022-12-18T18:46:56.717Z,12.00
2022-12-18T18:49:27.815Z,10.95
2022-12-18T18:51:56.203Z,9.82
2022-12-18T18:54:25.958Z,10.88
2022-12-18T18:59:41.676Z,9.52
2022-12-18T19:02:13.709Z,10.88
2022-12-18T19:04:45.772Z,12.35
2022-12-18T19:07:12.930Z,8.20
2022-12-18T19:09:41.768Z,11.23
2022-12-18T19:12:27.997Z,14.50
2022-12-18T19:14:55.118Z,14.07
2022-12-18T19:17:28.052Z,13.85
2022-12-18T19:19:56.347Z,5.28
2022-12-18T19:22:24.113Z,6.35
2022-12-18T19:24:50.672Z,8.73
2022-12-18T19:27:17.766Z,22.60
2022-12-18T19:29:44.273Z,11.20
2022-12-18T19:32:11.325Z,12.27
2022-12-18T19:34:38.998Z,14.82
2022-12-18T19:37:08.155Z,7.28
2022-12-18T19:39:39.236Z,4.80
2022-12-18T19:42:06.087Z,10.30
2022-12-18T19:44:32.761Z,11.57
2022-12-18T19:47:01.876Z,18.45
2022-12-18T19:49:32.711Z,9.55
2022-12-18T19:51:59.585Z,6.50
2022-12-18T19:54:27.192Z,7.68
2022-12-18T19:56:55.260Z,12.27
2022-12-18T19:59:21.888Z,11.60
2022-12-18T20:01:48.784Z,14.05
2022-12-18T20:04:15.866Z,7.43
2022-12-18T20:06:50.592Z,17.13
2022-12-18T20:09:18.330Z,4.70
2022-12-18T20:14:14.843Z,7.67
2022-12-18T20:16:49.507Z,10.20
2022-12-18T20:19:17.820Z,6.80
2022-12-18T20:21:44.839Z,13.50
2022-12-18T20:24:14.124Z,10.68
2022-12-18T20:26:41.108Z,14.32
2022-12-18T20:29:07.847Z,14.20
2022-12-18T20:31:34.837Z,7.32
2022-12-18T20:34:05.010Z,8.88
2022-12-18T20:36:35.198Z,9.57
2022-12-18T20:39:05.231Z,9.40
2022-12-18T20:41:38.809Z,7.57
2022-12-18T20:44:20.543Z,10.18
2022-12-18T20:46:50.311Z,10.20
2022-12-18T20:49:17.535Z,7.88
2022-12-18T20:51:44.136Z,7.63
2022-12-18T20:54:11.991Z,16.35
2022-12-18T20:56:39.517Z,9.43
2022-12-18T20:59:09.127Z,14.10
2022-12-18T21:01:39.170Z,7.60
2022-12-18T21:04:09.719Z,8.98
2022-12-18T21:06:37.283Z,11.77
2022-12-18T21:09:04.556Z,10.18
2022-12-18T21:11:51.721Z,12.05
2022-12-18T21:14:21.929Z,8.75
2022-12-18T21:16:51.897Z,3.53
2022-12-18T21:19:21.390Z,7.85
2022-12-18T21:21:47.985Z,10.65
2022-12-18T21:24:15.344Z,17.88
2022-12-18T21:26:46.103Z,11.02
2022-12-18T21:29:20.006Z,9.57
2022-12-18T21:31:47.773Z,10.05
2022-12-18T21:34:17.672Z,9.30
2022-12-18T21:36:44.843Z,5.38
2022-12-18T21:41:58.947Z,11.40
2022-12-18T21:44:25.546Z,11.35
2022-12-18T21:46:56.941Z,17.48
2022-12-18T21:49:29.628Z,16.50
2022-12-18T21:51:58.992Z,9.80
2022-12-18T21:54:27.338Z,10.80
2022-12-18T21:57:14.439Z,9.50
2022-12-18T21:59:43.498Z,7.25
2022-12-18T22:02:22.005Z,7.30
2022-12-18T22:04:50.413Z,10.50
2022-12-18T22:09:47.182Z,12.35
2022-12-18T22:12:34.391Z,9.80
2022-12-18T22:15:02.898Z,10.23
2022-12-18T22:19:57.693Z,7.75
2022-12-18T22:22:26.231Z,7.88
2022-12-18T22:27:28.629Z,3.00
2022-12-18T22:30:04.821Z,7.07
2022-12-18T22:32:35.368Z,6.00
2022-12-18T22:35:09.454Z,7.43
2022-12-18T22:37:41.865Z,13.63
2022-12-18T22:40:23.915Z,6.17
2022-12-18T22:42:52.649Z,17.10
2022-12-18T22:45:23.203Z,8.27
2022-12-18T22:47:52.092Z,8.23
2022-12-18T22:50:19.007Z,10.23
2022-12-18T22:52:45.547Z,10.45
2022-12-18T22:55:14.849Z,13.25
2022-12-18T22:57:43.779Z,8.73
2022-12-18T23:00:16.114Z,6.78
2022-12-18T23:02:45.243Z,11.02
2022-12-18T23:05:12.321Z,18.90
2022-12-18T23:07:39.508Z,13.32
2022-12-18T23:10:06.549Z,14.02
2022-12-18T23:12:37.529Z,17.23
2022-12-18T23:15:06.633Z,10.00
2022-12-18T23:17:34.008Z,8.13
2022-12-18T23:20:01.619Z,10.63
2022-12-18T23:22:30.969Z,4.13
2022-12-18T23:24:59.789Z,5.32
2022-12-18T23:27:27.376Z,11.98
2022-12-18T23:29:54.410Z,12.00
2022-12-18T23:32:22.819Z,8.43
2022-12-18T23:34:51.607Z,15.75
2022-12-18T23:37:49.993Z,7.75
2022-12-18T23:40:10.821Z,13.65
2022-12-18T23:42:37.383Z,12.18
2022-12-18T23:45:16.623Z,8.48
2022-12-18T23:47:46.306Z,10.20
2022-12-18T23:50:18.490Z,15.93
2022-12-18T23:52:45.783Z,15.43
2022-12-18T23:55:12.785Z,18.85
2022-12-18T23:57:40.069Z,13.63
